createdAt,value
2019-02-08T00:00:33.796Z,97.23
2019-02-08T00:03:02.705Z,96.91
2019-02-08T00:05:31.329Z,96.61
2019-02-08T00:08:00.095Z,96.83
2019-02-08T00:10:28.748Z,96.74
2019-02-08T00:12:57.920Z,96.50
2019-02-08T00:15:26.592Z,96.22
2019-02-08T00:17:55.302Z,95.86
2019-02-08T00:20:24.756Z,95.50
2019-02-08T00:22:53.538Z,95.37
2019-02-08T00:25:23.367Z,95.12
2019-02-08T00:27:52.440Z,95.27
2019-02-08T00:30:29.699Z,95.21
2019-02-08T00:32:58.668Z,94.57
2019-02-08T00:35:28.649Z,94.54
2019-02-08T00:37:57.169Z,94.96
2019-02-08T00:40:27.375Z,94.86
2019-02-08T00:42:57.568Z,94.75
2019-02-08T00:45:26.073Z,94.66
2019-02-08T00:47:54.633Z,94.87
2019-02-08T00:50:25.079Z,95.46
2019-02-08T00:52:54.533Z,95.32
2019-02-08T00:55:23.109Z,95.08
2019-02-08T00:57:51.861Z,95.48
2019-02-08T01:00:21.404Z,95.02
2019-02-08T01:02:51.705Z,94.49
2019-02-08T01:05:22.876Z,94.64
2019-02-08T01:07:52.343Z,94.58
2019-02-08T01:10:31.620Z,94.50
2019-02-08T01:13:01.481Z,94.70
2019-02-08T01:15:32.030Z,94.33
2019-02-08T01:18:01.015Z,93.77
2019-02-08T01:20:29.501Z,93.78
2019-02-08T01:22:57.982Z,94.02
2019-02-08T01:25:28.286Z,93.77
2019-02-08T01:27:56.686Z,94.19
2019-02-08T01:30:30.292Z,93.64
2019-02-08T01:32:59.263Z,94.03
2019-02-08T01:35:28.526Z,93.90
2019-02-08T01:37:58.976Z,93.90
2019-02-08T01:40:39.129Z,94.17
2019-02-08T01:43:08.597Z,93.63
2019-02-08T01:45:37.493Z,93.64
2019-02-08T01:48:08.240Z,93.39
2019-02-08T01:50:36.771Z,93.27
2019-02-08T01:53:06.274Z,93.10
2019-02-08T01:55:34.766Z,92.97
2019-02-08T01:58:03.355Z,92.84
2019-02-08T02:00:43.406Z,92.94
2019-02-08T02:03:11.939Z,93.14
2019-02-08T02:05:40.637Z,93.27
2019-02-08T02:08:09.276Z,93.13
2019-02-08T02:10:43.438Z,93.33
2019-02-08T02:13:12.217Z,93.42
2019-02-08T02:15:41.671Z,93.64
2019-02-08T02:18:11.564Z,93.47
2019-02-08T02:20:42.441Z,93.38
2019-02-08T02:23:12.915Z,94.08
2019-02-08T02:25:41.423Z,93.70
2019-02-08T02:28:10.717Z,93.45
2019-02-08T02:30:39.626Z,93.38
2019-02-08T02:33:10.962Z,92.71
2019-02-08T02:35:39.743Z,92.88
2019-02-08T02:38:09.095Z,93.44
2019-02-08T02:40:37.758Z,92.72
2019-02-08T02:43:07.614Z,93.29
2019-02-08T02:45:40.694Z,93.62
2019-02-08T02:48:11.794Z,93.77
2019-02-08T02:50:40.373Z,94.00
2019-02-08T02:53:08.864Z,93.64
2019-02-08T02:55:37.439Z,93.70
2019-02-08T02:58:06.421Z,93.96
2019-02-08T03:00:41.106Z,93.99
2019-02-08T03:03:10.259Z,94.33
2019-02-08T03:05:38.762Z,94.79
2019-02-08T03:08:09.216Z,95.36
2019-02-08T03:10:38.193Z,95.28
2019-02-08T03:13:07.254Z,95.42
2019-02-08T03:15:35.959Z,96.04
2019-02-08T03:18:05.216Z,95.78
2019-02-08T03:20:33.992Z,95.83
2019-02-08T03:23:02.502Z,95.96
2019-02-08T03:25:31.475Z,96.44
2019-02-08T03:27:59.977Z,96.51
2019-02-08T03:30:34.663Z,96.93
2019-02-08T03:33:03.171Z,96.97
2019-02-08T03:35:31.745Z,97.05
2019-02-08T03:38:00.296Z,97.23
2019-02-08T03:40:30.442Z,97.22
2019-02-08T03:43:00.017Z,97.32
2019-02-08T03:45:30.245Z,97.94
2019-02-08T03:47:58.647Z,98.15
2019-02-08T03:50:27.196Z,98.36
2019-02-08T03:52:56.255Z,98.28
2019-02-08T03:55:25.258Z,98.48
2019-02-08T03:57:53.782Z,98.39
2019-02-08T04:00:29.439Z,98.61
2019-02-08T04:02:57.868Z,98.53
2019-02-08T04:05:26.448Z,98.40
2019-02-08T04:07:54.927Z,98.29
2019-02-08T04:10:23.630Z,98.36
2019-02-08T04:12:52.130Z,98.35
2019-02-08T04:15:25.839Z,98.13
2019-02-08T04:17:54.349Z,98.28
2019-02-08T04:20:26.928Z,98.29
2019-02-08T04:22:56.991Z,98.06
2019-02-08T04:25:26.383Z,98.17
2019-02-08T04:27:55.434Z,98.33
2019-02-08T04:30:31.333Z,98.44
2019-02-08T04:33:02.161Z,98.48
2019-02-08T04:35:31.003Z,98.60
2019-02-08T04:37:59.531Z,98.37
2019-02-08T04:40:28.686Z,98.69
2019-02-08T04:42:57.246Z,98.60
2019-02-08T04:45:26.175Z,98.73
2019-02-08T04:47:54.877Z,98.66
2019-02-08T04:50:27.858Z,98.75
2019-02-08T04:52:57.466Z,98.78
2019-02-08T04:55:26.607Z,98.66
2019-02-08T04:57:55.184Z,99.08
2019-02-08T05:00:35.228Z,99.21
2019-02-08T05:03:04.489Z,99.12
2019-02-08T05:05:33.042Z,99.03
2019-02-08T05:08:01.546Z,99.48
2019-02-08T05:10:33.599Z,99.46
2019-02-08T05:13:02.050Z,99.28
2019-02-08T05:15:30.607Z,99.66
2019-02-08T05:17:59.206Z,99.21
2019-02-08T05:20:30.592Z,98.93
2019-02-08T05:22:58.997Z,98.69
2019-02-08T05:25:27.593Z,99.21
2019-02-08T05:27:56.044Z,98.82
2019-02-08T05:30:32.991Z,98.30
2019-02-08T05:33:04.441Z,99.83
2019-02-08T05:35:32.959Z,99.20
2019-02-08T05:38:01.407Z,98.21
2019-02-08T05:40:29.976Z,98.06
2019-02-08T05:42:59.448Z,97.73
2019-02-08T05:45:28.798Z,97.24
2019-02-08T05:47:57.204Z,97.54
2019-02-08T05:50:27.639Z,96.98
2019-02-08T05:52:56.292Z,96.95
2019-02-08T05:55:30.019Z,97.26
2019-02-08T05:57:58.802Z,97.48
2019-02-08T06:00:34.554Z,98.03
2019-02-08T06:03:03.164Z,97.77
2019-02-08T06:05:31.712Z,97.26
2019-02-08T06:08:00.399Z,96.48
2019-02-08T06:10:28.806Z,96.78
2019-02-08T06:12:57.248Z,96.14
2019-02-08T06:15:26.632Z,96.43
2019-02-08T06:17:55.114Z,95.49
2019-02-08T06:20:27.575Z,96.05
2019-02-08T06:22:56.407Z,96.03
2019-02-08T06:25:25.514Z,95.93
2019-02-08T06:27:53.905Z,96.05
2019-02-08T06:30:25.647Z,96.14
2019-02-08T06:32:54.150Z,96.37
2019-02-08T06:35:25.143Z,95.92
2019-02-08T06:37:53.683Z,95.89
2019-02-08T06:40:27.607Z,96.23
2019-02-08T06:42:56.197Z,95.86
2019-02-08T06:45:27.065Z,95.21
2019-02-08T06:47:55.714Z,95.59
2019-02-08T06:50:28.141Z,95.43
2019-02-08T06:52:56.745Z,95.61
2019-02-08T06:55:25.495Z,95.60
2019-02-08T06:58:05.723Z,95.46
2019-02-08T07:00:35.990Z,95.56
2019-02-08T07:03:16.010Z,95.91
2019-02-08T07:06:04.277Z,95.99
2019-02-08T07:08:43.107Z,96.22
2019-02-08T07:11:13.251Z,96.12
2019-02-08T07:13:59.909Z,96.09
2019-02-08T07:16:47.888Z,96.27
2019-02-08T07:19:34.490Z,96.03
2019-02-08T07:22:16.186Z,95.85
2019-02-08T07:24:51.849Z,96.35
2019-02-08T07:27:38.160Z,95.98
2019-02-08T07:30:11.341Z,95.93
2019-02-08T07:32:57.511Z,94.89
2019-02-08T07:35:27.725Z,94.45
2019-02-08T07:38:04.156Z,94.08
2019-02-08T07:40:43.140Z,94.42
2019-02-08T07:43:16.707Z,94.50
2019-02-08T07:45:48.738Z,94.51
2019-02-08T07:48:22.140Z,93.78
2019-02-08T07:50:54.688Z,94.68
2019-02-08T07:53:27.543Z,94.05
2019-02-08T07:55:57.662Z,94.60
2019-02-08T07:58:44.362Z,93.92
2019-02-08T08:01:20.367Z,93.76
2019-02-08T08:03:51.325Z,94.23
2019-02-08T08:06:25.960Z,93.90
2019-02-08T08:09:02.279Z,93.96
2019-02-08T08:11:32.737Z,93.10
2019-02-08T08:14:12.445Z,92.85
2019-02-08T08:16:50.851Z,92.67
2019-02-08T08:19:22.182Z,92.91
2019-02-08T08:21:55.094Z,92.07
2019-02-08T08:24:44.187Z,92.26
2019-02-08T08:27:14.319Z,92.22
2019-02-08T08:29:52.162Z,92.09
2019-02-08T08:32:25.314Z,91.97
2019-02-08T08:35:14.081Z,91.97
2019-02-08T08:38:11.056Z,91.60
2019-02-08T08:41:04.706Z,92.17
2019-02-08T08:43:47.930Z,91.17
2019-02-08T08:46:28.350Z,91.64
2019-02-08T08:49:19.351Z,91.00
2019-02-08T08:52:07.231Z,91.05
2019-02-08T08:54:52.957Z,90.81
2019-02-08T08:57:39.411Z,91.08
2019-02-08T09:00:34.894Z,90.65
2019-02-08T09:03:11.978Z,90.83
2019-02-08T09:05:46.305Z,91.34
2019-02-08T09:08:38.291Z,90.80
2019-02-08T09:11:21.611Z,90.56
2019-02-08T09:14:15.559Z,89.74
2019-02-08T09:16:49.811Z,90.15
2019-02-08T09:19:24.168Z,89.82
2019-02-08T09:22:10.641Z,89.74
2019-02-08T09:25:01.905Z,89.59
2019-02-08T09:27:33.375Z,89.14
2019-02-08T09:30:13.758Z,88.95
2019-02-08T09:33:10.891Z,88.96
2019-02-08T09:35:54.290Z,88.63
2019-02-08T09:38:37.571Z,88.59
2019-02-08T09:41:28.866Z,88.98
2019-02-08T09:44:21.447Z,88.44
2019-02-08T09:47:10.805Z,87.79
2019-02-08T09:50:02.109Z,88.25
2019-02-08T09:52:45.672Z,87.66
2019-02-08T09:55:23.027Z,88.48
2019-02-08T09:58:03.439Z,87.98
2019-02-08T10:00:49.909Z,87.87
2019-02-08T10:03:24.058Z,87.54
2019-02-08T10:06:19.393Z,87.11
2019-02-08T10:09:24.398Z,87.14
2019-02-08T10:11:55.846Z,87.79
2019-02-08T10:14:50.136Z,86.30
2019-02-08T10:17:30.527Z,86.90
2019-02-08T10:20:13.976Z,87.01
2019-02-08T10:23:04.908Z,86.04
2019-02-08T10:25:51.646Z,85.49
2019-02-08T10:28:45.494Z,84.71
2019-02-08T10:31:17.020Z,84.81
2019-02-08T10:33:57.202Z,83.47
2019-02-08T10:36:53.034Z,82.17
2019-02-08T10:39:57.806Z,81.80
2019-02-08T10:42:48.476Z,81.31
2019-02-08T10:45:50.180Z,82.46
2019-02-08T10:48:46.906Z,82.61
2019-02-08T10:51:33.330Z,81.70
2019-02-08T10:54:13.643Z,82.46
2019-02-08T10:57:03.212Z,81.70
2019-02-08T10:59:34.812Z,81.33
2019-02-08T11:02:25.835Z,82.40
2019-02-08T11:05:00.233Z,80.77
2019-02-08T11:07:32.198Z,80.46
2019-02-08T11:10:27.680Z,80.62
2019-02-08T11:13:24.817Z,80.78
2019-02-08T11:16:19.119Z,80.24
2019-02-08T11:19:09.882Z,80.22
2019-02-08T11:21:39.961Z,81.03
2019-02-08T11:24:08.451Z,80.99
2019-02-08T11:26:37.199Z,81.30
2019-02-08T11:29:06.055Z,80.63
2019-02-08T11:31:34.533Z,80.09
2019-02-08T11:34:03.219Z,81.11
2019-02-08T11:36:31.644Z,80.19
2019-02-08T11:39:00.055Z,80.64
2019-02-08T11:41:28.651Z,79.57
2019-02-08T11:43:57.120Z,78.69
2019-02-08T11:46:25.528Z,80.48
2019-02-08T11:48:54.147Z,79.18
2019-02-08T11:51:24.166Z,78.75
2019-02-08T11:53:52.831Z,80.01
2019-02-08T11:56:21.354Z,78.73
2019-02-08T11:58:49.841Z,78.75
2019-02-08T12:01:18.301Z,79.06
2019-02-08T12:03:46.790Z,79.47
2019-02-08T12:06:15.383Z,78.64
2019-02-08T12:08:43.816Z,79.53
2019-02-08T12:11:12.282Z,79.03
2019-02-08T12:13:40.728Z,79.53
2019-02-08T12:16:09.272Z,80.69
2019-02-08T12:18:37.701Z,79.00
2019-02-08T12:21:06.292Z,78.98
2019-02-08T12:23:34.832Z,78.65
2019-02-08T12:26:03.374Z,78.68
2019-02-08T12:28:32.005Z,78.82
2019-02-08T12:31:01.054Z,79.45
2019-02-08T12:33:29.533Z,79.60
2019-02-08T12:35:57.979Z,79.04
2019-02-08T12:38:26.514Z,79.55
2019-02-08T12:40:55.004Z,80.32
2019-02-08T12:43:23.425Z,80.19
2019-02-08T12:45:51.880Z,80.09
2019-02-08T12:48:20.312Z,80.73
2019-02-08T12:50:48.903Z,80.77
2019-02-08T12:53:17.322Z,81.22
2019-02-08T12:55:45.759Z,81.35
2019-02-08T12:58:14.208Z,81.85
2019-02-08T13:00:42.707Z,81.72
2019-02-08T13:03:11.258Z,81.41
2019-02-08T13:05:39.910Z,82.02
2019-02-08T13:08:08.551Z,81.67
2019-02-08T13:10:37.139Z,81.92
2019-02-08T13:13:05.848Z,82.00
2019-02-08T13:15:34.427Z,82.12
2019-02-08T13:18:03.064Z,82.88
2019-02-08T13:20:31.605Z,82.48
2019-02-08T13:23:00.818Z,81.94
2019-02-08T13:25:29.506Z,82.00
2019-02-08T13:27:58.163Z,82.09
2019-02-08T13:30:37.018Z,82.18
2019-02-08T13:33:05.646Z,82.57
2019-02-08T13:35:34.302Z,82.00
2019-02-08T13:38:02.992Z,82.26
2019-02-08T13:40:32.766Z,81.85
2019-02-08T13:43:01.251Z,82.70
2019-02-08T13:45:29.831Z,81.68
2019-02-08T13:47:58.246Z,82.37
2019-02-08T13:50:29.759Z,82.19
2019-02-08T13:52:58.380Z,82.30
2019-02-08T13:55:27.576Z,82.43
2019-02-08T13:57:56.260Z,81.76
2019-02-08T14:00:36.723Z,82.47
2019-02-08T14:03:06.575Z,82.49
2019-02-08T14:05:35.136Z,82.02
2019-02-08T14:08:04.107Z,83.43
2019-02-08T14:10:32.625Z,83.24
2019-02-08T14:13:01.133Z,83.00
2019-02-08T14:15:29.863Z,83.20
2019-02-08T14:17:58.443Z,83.97
2019-02-08T14:20:28.365Z,83.46
2019-02-08T14:22:57.051Z,83.67
2019-02-08T14:25:26.603Z,83.76
2019-02-08T14:27:55.164Z,83.11
2019-02-08T14:30:32.452Z,83.74
2019-02-08T14:33:01.024Z,83.86
2019-02-08T14:35:29.743Z,83.61
2019-02-08T14:38:00.653Z,84.02
2019-02-08T14:40:32.587Z,84.22
2019-02-08T14:43:03.661Z,84.25
2019-02-08T14:45:32.426Z,84.55
2019-02-08T14:48:02.861Z,84.68
2019-02-08T14:50:33.414Z,84.26
2019-02-08T14:53:02.080Z,84.39
2019-02-08T14:55:30.983Z,84.86
2019-02-08T14:58:02.148Z,84.62
2019-02-08T15:00:30.631Z,84.75
2019-02-08T15:02:59.071Z,84.53
2019-02-08T15:05:27.965Z,84.52
2019-02-08T15:07:57.730Z,84.33
2019-02-08T15:10:40.519Z,85.09
2019-02-08T15:13:09.264Z,84.95
2019-02-08T15:15:37.903Z,84.82
2019-02-08T15:18:07.694Z,85.03
2019-02-08T15:20:39.959Z,85.63
2019-02-08T15:23:13.743Z,85.22
2019-02-08T15:25:42.652Z,85.99
2019-02-08T15:28:11.466Z,86.23
2019-02-08T15:30:43.064Z,85.45
2019-02-08T15:33:11.693Z,85.84
2019-02-08T15:35:40.227Z,86.69
2019-02-08T15:38:08.990Z,86.65
2019-02-08T15:40:46.744Z,85.82
2019-02-08T15:43:18.238Z,86.28
2019-02-08T15:45:55.386Z,85.66
2019-02-08T15:48:24.534Z,85.79
2019-02-08T15:50:53.457Z,86.03
2019-02-08T15:53:25.592Z,86.20
2019-02-08T15:56:03.713Z,85.86
2019-02-08T15:58:32.540Z,86.45
2019-02-08T16:01:01.488Z,86.43
2019-02-08T16:03:30.428Z,86.21
2019-02-08T16:05:59.094Z,86.48
2019-02-08T16:08:28.059Z,86.35
2019-02-08T16:10:56.746Z,86.24
2019-02-08T16:13:25.846Z,86.48
2019-02-08T16:15:54.645Z,86.23
2019-02-08T16:18:23.277Z,86.26
2019-02-08T16:20:52.006Z,86.36
2019-02-08T16:23:20.868Z,87.03
2019-02-08T16:25:49.604Z,86.88
2019-02-08T16:28:19.244Z,86.43
2019-02-08T16:30:47.890Z,87.51
2019-02-08T16:33:16.909Z,87.37
2019-02-08T16:35:45.728Z,87.38
2019-02-08T16:38:14.528Z,87.45
2019-02-08T16:40:43.691Z,86.67
2019-02-08T16:43:12.368Z,86.29
2019-02-08T16:45:42.812Z,86.92
2019-02-08T16:48:13.622Z,87.30
2019-02-08T16:50:43.601Z,86.85
2019-02-08T16:53:13.621Z,86.33
2019-02-08T16:55:42.416Z,86.23
2019-02-08T16:58:12.684Z,86.83
2019-02-08T17:00:43.257Z,86.69
2019-02-08T17:03:15.746Z,86.40
2019-02-08T17:05:44.510Z,87.03
2019-02-08T17:08:13.286Z,87.21
2019-02-08T17:10:41.883Z,87.35
2019-02-08T17:13:10.440Z,87.28
2019-02-08T17:15:39.563Z,87.47
2019-02-08T17:18:08.868Z,87.17
2019-02-08T17:20:50.434Z,87.98
2019-02-08T17:23:19.350Z,87.60
2019-02-08T17:25:48.000Z,88.18
2019-02-08T17:28:16.624Z,88.17
2019-02-08T17:30:45.804Z,87.92
2019-02-08T17:33:14.595Z,88.77
2019-02-08T17:35:43.188Z,88.40
2019-02-08T17:38:12.277Z,87.97
2019-02-08T17:40:46.478Z,87.34
2019-02-08T17:43:15.050Z,87.22
2019-02-08T17:45:43.745Z,86.88
2019-02-08T17:48:15.135Z,87.16
2019-02-08T17:50:43.792Z,87.16
2019-02-08T17:53:12.251Z,87.11
2019-02-08T17:55:40.853Z,86.53
2019-02-08T17:58:10.727Z,86.52
2019-02-08T18:00:43.293Z,86.05
2019-02-08T18:03:11.915Z,86.09
2019-02-08T18:05:40.478Z,86.14
2019-02-08T18:08:09.206Z,85.79
2019-02-08T18:10:37.658Z,86.17
2019-02-08T18:13:06.272Z,86.25
2019-02-08T18:15:34.897Z,86.32
2019-02-08T18:18:05.145Z,86.71
2019-02-08T18:20:42.977Z,86.15
2019-02-08T18:23:12.260Z,86.41
2019-02-08T18:25:40.864Z,86.60
2019-02-08T18:28:11.247Z,86.52
2019-02-08T18:30:40.489Z,86.62
2019-02-08T18:33:09.043Z,86.78
2019-02-08T18:35:37.653Z,86.48
2019-02-08T18:38:06.826Z,86.33
2019-02-08T18:40:35.425Z,85.66
2019-02-08T18:43:04.168Z,86.02
2019-02-08T18:45:35.192Z,85.71
2019-02-08T18:48:04.181Z,85.53
2019-02-08T18:50:38.445Z,85.71
2019-02-08T18:53:07.460Z,85.39
2019-02-08T18:55:36.028Z,85.74
2019-02-08T18:58:05.862Z,85.80
2019-02-08T19:00:40.148Z,85.47
2019-02-08T19:03:07.522Z,85.40
2019-02-08T19:05:36.095Z,85.35
2019-02-08T19:08:05.362Z,85.84
2019-02-08T19:10:34.111Z,86.37
2019-02-08T19:13:02.653Z,85.21
2019-02-08T19:15:32.177Z,85.51
2019-02-08T19:18:00.902Z,85.51
2019-02-08T19:20:30.031Z,85.85
2019-02-08T19:22:58.805Z,86.07
2019-02-08T19:25:30.164Z,85.53
2019-02-08T19:27:58.658Z,85.81
2019-02-08T19:30:29.989Z,85.57
2019-02-08T19:32:58.593Z,85.30
2019-02-08T19:35:28.884Z,84.90
2019-02-08T19:37:57.642Z,85.00
2019-02-08T19:40:29.172Z,85.11
2019-02-08T19:42:57.678Z,84.65
2019-02-08T19:45:26.347Z,84.90
2019-02-08T19:47:54.861Z,84.24
2019-02-08T19:50:34.432Z,84.62
2019-02-08T19:53:02.951Z,84.17
2019-02-08T19:55:31.383Z,84.49
2019-02-08T19:57:59.883Z,83.74
2019-02-08T20:00:31.026Z,83.60
2019-02-08T20:02:59.895Z,83.70
2019-02-08T20:05:28.468Z,83.42
2019-02-08T20:07:56.902Z,83.52
2019-02-08T20:10:27.937Z,83.24
2019-02-08T20:12:56.555Z,83.17
2019-02-08T20:15:25.502Z,83.75
2019-02-08T20:17:54.109Z,83.91
2019-02-08T20:20:22.775Z,84.31
2019-02-08T20:22:51.812Z,83.59
2019-02-08T20:25:26.002Z,83.25
2019-02-08T20:27:56.198Z,83.52
2019-02-08T20:30:26.567Z,82.80
2019-02-08T20:32:55.223Z,82.90
2019-02-08T20:35:25.587Z,82.71
2019-02-08T20:37:54.882Z,83.10
2019-02-08T20:40:34.733Z,83.14
2019-02-08T20:43:05.422Z,84.08
2019-02-08T20:45:35.598Z,83.39
2019-02-08T20:48:15.345Z,83.13
2019-02-08T20:50:43.876Z,83.64
2019-02-08T20:53:12.996Z,82.93
2019-02-08T20:55:41.890Z,83.23
2019-02-08T20:58:12.867Z,83.59
2019-02-08T21:00:44.716Z,83.43
2019-02-08T21:03:20.681Z,83.34
2019-02-08T21:05:49.831Z,83.17
2019-02-08T21:08:19.568Z,83.00
2019-02-08T21:10:48.060Z,83.34
2019-02-08T21:13:16.798Z,83.59
2019-02-08T21:15:45.313Z,83.21
2019-02-08T21:18:13.776Z,83.38
2019-02-08T21:20:42.684Z,83.22
2019-02-08T21:23:11.152Z,83.47
2019-02-08T21:25:41.290Z,83.45
2019-02-08T21:28:11.645Z,82.82
2019-02-08T21:30:41.009Z,83.11
2019-02-08T21:33:11.374Z,82.64
2019-02-08T21:35:39.960Z,82.57
2019-02-08T21:38:09.324Z,82.37
2019-02-08T21:40:38.360Z,82.40
2019-02-08T21:43:07.499Z,81.85
2019-02-08T21:45:41.160Z,82.05
2019-02-08T21:48:12.490Z,82.57
2019-02-08T21:50:41.399Z,81.64
2019-02-08T21:53:11.362Z,81.79
2019-02-08T21:55:40.267Z,81.74
2019-02-08T21:58:08.943Z,81.64
2019-02-08T22:00:43.810Z,81.78
2019-02-08T22:03:12.374Z,81.29
2019-02-08T22:05:49.951Z,82.23
2019-02-08T22:08:18.469Z,81.97
2019-02-08T22:10:46.956Z,81.77
2019-02-08T22:13:15.398Z,82.02
2019-02-08T22:15:45.236Z,81.64
2019-02-08T22:18:13.819Z,81.54
2019-02-08T22:20:42.373Z,81.45
2019-02-08T22:23:11.605Z,80.91
2019-02-08T22:25:40.179Z,80.62
2019-02-08T22:28:09.093Z,80.69
2019-02-08T22:30:38.900Z,80.34
2019-02-08T22:33:09.339Z,80.76
2019-02-08T22:35:37.969Z,80.68
2019-02-08T22:38:08.913Z,80.93
2019-02-08T22:40:37.919Z,80.43
2019-02-08T22:43:06.795Z,80.85
2019-02-08T22:45:37.976Z,80.49
2019-02-08T22:48:07.238Z,80.56
2019-02-08T22:50:35.926Z,80.59
2019-02-08T22:53:06.211Z,80.20
2019-02-08T22:55:36.063Z,80.52
2019-02-08T22:58:06.377Z,80.44
2019-02-08T23:00:42.181Z,80.53
2019-02-08T23:03:15.660Z,79.92
2019-02-08T23:05:46.053Z,79.72
2019-02-08T23:08:14.631Z,80.40
2019-02-08T23:10:43.245Z,80.93
2019-02-08T23:13:12.683Z,81.04
2019-02-08T23:15:41.185Z,81.07
2019-02-08T23:18:10.862Z,80.95
2019-02-08T23:20:39.447Z,81.08
2019-02-08T23:23:08.238Z,81.19
2019-02-08T23:25:36.812Z,80.95
2019-02-08T23:28:05.788Z,81.10
2019-02-08T23:30:34.478Z,81.17
2019-02-08T23:33:03.061Z,81.32
2019-02-08T23:35:31.557Z,81.60
2019-02-08T23:38:00.054Z,81.25
2019-02-08T23:40:29.755Z,81.21
2019-02-08T23:42:58.334Z,81.02
2019-02-08T23:45:27.438Z,81.15
2019-02-08T23:47:55.938Z,80.15
2019-02-08T23:50:25.645Z,80.74
2019-02-08T23:52:54.660Z,81.25
2019-02-08T23:55:24.569Z,81.13
2019-02-08T23:57:53.118Z,80.58
